Time;durP1;ratioP1;P1;durP2;ratioP2;P2;SDS_P1;SDS_P2;PMS_P1;PMS_P2;Temp;Humidity;BMP_temperature;BMP_pressure;BME280_temperature;BME280_humidity;BME280_pressure;Samples;Min_cycle;Max_cycle;Signal;HPM_P1;HPM_P2
2022/06/17 00:01:57;;;;;;;2.53;1.88;;;16.40;99.90;;;-141.84;51.87;19626.88;5030902;28;20226;-61
2022/06/17 00:04:25;;;;;;;2.22;2.03;;;16.40;99.90;;;-141.84;52.21;19635.00;5030901;28;20221;-62
2022/06/17 00:06:57;;;;;;;3.00;2.20;;;16.40;99.90;;;-141.84;52.42;19557.78;5030883;28;20226;-61
2022/06/17 00:09:29;;;;;;;3.38;2.13;;;16.30;99.90;;;-141.84;52.22;19582.16;5030866;28;20598;-60
2022/06/17 00:11:58;;;;;;;3.35;2.40;;;16.20;99.90;;;-141.84;51.86;19598.41;5030838;28;20301;-62
2022/06/17 00:14:33;;;;;;;2.25;1.92;;;16.20;99.90;;;-141.84;51.66;19616.72;5031685;28;20289;-60
2022/06/17 00:17:03;;;;;;;3.40;2.70;;;16.20;99.90;;;-141.84;51.26;19635.00;5030697;28;20253;-61
2022/06/17 00:19:32;;;;;;;2.47;1.95;;;16.30;99.90;;;-141.84;52.02;19588.25;5030594;28;20226;-61
2022/06/17 00:22:01;;;;;;;4.10;2.15;;;16.20;99.90;;;-141.84;52.92;19578.09;5030745;28;20230;-62
2022/06/17 00:24:34;;;;;;;2.38;2.17;;;16.20;99.90;;;-141.84;53.04;19545.56;5030781;28;20241;-62
2022/06/17 00:27:02;;;;;;;2.38;1.80;;;16.10;99.90;;;-141.84;53.07;19582.16;5030691;28;20179;-61
2022/06/17 00:29:31;;;;;;;2.35;1.88;;;16.10;99.90;;;-141.84;53.46;19565.91;5031438;28;20289;-60
2022/06/17 00:32:00;;;;;;;3.17;2.00;;;16.00;99.90;;;-141.84;53.91;19537.44;5030385;28;20232;-60
2022/06/17 00:34:28;;;;;;;2.33;2.03;;;15.90;99.90;;;-141.84;54.15;19541.50;5030440;28;20232;-61
2022/06/17 00:37:01;;;;;;;2.15;1.95;;;15.90;99.90;;;-141.84;54.22;19519.16;5030297;28;20236;-60
2022/06/17 00:39:34;;;;;;;5.53;2.30;;;15.90;99.90;;;-141.84;53.86;19559.81;5030745;28;20239;-61
2022/06/17 00:42:09;;;;;;;3.70;2.20;;;15.90;99.90;;;-141.84;54.15;19533.38;5030096;28;20268;-61
2022/06/17 00:44:50;;;;;;;2.55;1.90;;;15.90;99.90;;;-141.84;54.28;19555.75;5031057;28;20574;-61
2022/06/17 00:47:31;;;;;;;2.40;2.10;;;15.90;99.90;;;-141.84;54.86;19545.56;5030022;28;20313;-61
2022/06/17 00:50:13;;;;;;;2.95;2.28;;;15.90;99.90;;;-141.84;55.35;19484.59;5030449;28;20739;-61
2022/06/17 00:52:51;;;;;;;3.83;2.22;;;15.90;99.90;;;-141.84;55.29;19511.03;5030348;28;20222;-60
2022/06/17 00:55:30;;;;;;;2.42;2.10;;;15.80;99.90;;;-141.84;55.93;19482.56;5030343;28;20721;-60
2022/06/17 00:58:01;;;;;;;3.75;2.30;;;15.80;99.90;;;-141.84;56.05;19488.69;5030007;28;20226;-60
2022/06/17 01:00:33;;;;;;;2.67;1.77;;;15.70;99.90;;;-141.84;55.99;19482.56;5029327;28;20304;-61
2022/06/17 01:03:08;;;;;;;3.58;2.03;;;15.70;99.90;;;-141.84;56.65;19437.88;5029857;28;20301;-62
2022/06/17 01:05:43;;;;;;;3.17;2.00;;;15.70;99.90;;;-141.84;56.64;19460.22;5030799;28;20186;-60
2022/06/17 01:11:14;;;;;;;2.28;1.90;;;15.50;99.90;;;-141.84;57.83;19385.03;5042089;28;20228;-61
2022/06/17 01:13:48;;;;;;;2.13;1.90;;;15.50;99.90;;;-141.84;57.70;19435.84;5049605;28;20736;-60
2022/06/17 01:16:22;;;;;;;2.20;2.00;;;15.40;99.90;;;-141.84;57.77;19421.63;5049576;28;20241;-62
2022/06/17 01:18:54;;;;;;;2.83;2.20;;;15.40;99.90;;;-141.84;57.49;19431.78;5035973;28;20223;-61
2022/06/17 01:21:31;;;;;;;2.35;2.00;;;15.40;99.90;;;-141.84;57.85;19421.63;5029987;28;20221;-60
2022/06/17 01:24:01;;;;;;;3.10;2.15;;;15.30;99.90;;;-141.84;58.09;19427.72;5029606;28;20300;-63
2022/06/17 01:26:30;;;;;;;2.17;1.90;;;15.20;99.90;;;-141.84;58.35;19391.13;5030119;28;20774;-61
2022/06/17 01:28:58;;;;;;;2.63;1.90;;;15.20;99.90;;;-141.84;58.73;19395.19;5029460;28;20221;-61
2022/06/17 01:31:26;;;;;;;2.47;1.85;;;15.10;99.90;;;-141.84;58.21;19403.31;5029449;28;20643;-61
2022/06/17 01:33:55;;;;;;;2.53;2.10;;;15.10;99.90;;;-141.84;58.00;19380.97;5029512;28;20284;-62
2022/06/17 01:36:27;;;;;;;2.00;1.80;;;15.10;99.90;;;-141.84;58.96;19372.84;5029826;28;20221;-61
2022/06/17 01:39:00;;;;;;;2.40;1.73;;;15.00;99.90;;;-141.84;58.00;19409.41;5030321;28;20309;-61
2022/06/17 01:41:34;;;;;;;1.98;1.83;;;15.00;99.90;;;-141.84;58.17;19391.13;5029684;28;20217;-60
2022/06/17 01:44:14;;;;;;;2.55;2.08;;;14.90;99.90;;;-141.84;57.67;19370.81;5029324;28;20311;-62
2022/06/17 01:46:46;;;;;;;1.67;1.57;;;14.90;99.90;;;-141.84;57.38;19401.28;5029492;28;20233;-60
2022/06/17 01:49:22;;;;;;;2.03;1.80;;;15.00;99.90;;;-141.84;57.30;19370.81;5029480;28;20248;-59
2022/06/17 01:51:58;;;;;;;3.20;1.90;;;14.90;99.90;;;-141.84;57.53;19378.94;5029980;28;20304;-61
2022/06/17 01:54:37;;;;;;;2.63;1.80;;;14.90;99.90;;;-141.84;57.45;19395.19;5029383;28;20680;-60
2022/06/17 01:57:10;;;;;;;2.33;1.73;;;14.80;99.90;;;-141.84;58.23;19383.00;5029480;28;20210;-62
2022/06/17 01:59:44;;;;;;;3.30;1.60;;;14.80;99.90;;;-141.84;59.13;19346.44;5029673;28;20234;-60
2022/06/17 02:02:15;;;;;;;2.05;1.60;;;14.70;99.90;;;-141.84;59.38;19322.03;5028951;28;20309;-60
2022/06/17 02:04:51;;;;;;;1.80;1.70;;;14.60;99.90;;;-141.84;58.49;19364.72;5029415;28;20272;-61
2022/06/17 02:07:26;;;;;;;1.80;1.70;;;14.60;99.90;;;-141.84;58.49;19328.13;5029774;28;20229;-60
2022/06/17 02:09:54;;;;;;;2.70;1.53;;;14.50;99.90;;;-141.84;57.80;19370.81;5031685;28;20308;-61
2022/06/17 02:12:27;;;;;;;2.40;1.80;;;14.60;99.90;;;-141.84;57.79;19346.44;5053185;28;20304;-61
2022/06/17 02:14:57;;;;;;;1.77;1.40;;;14.60;99.90;;;-141.84;58.34;19358.63;5053701;28;20289;-59
2022/06/17 02:17:32;;;;;;;2.07;1.70;;;14.50;99.90;;;-141.84;58.59;19352.53;5031071;28;20222;-60
2022/06/17 02:20:01;;;;;;;1.60;1.50;;;14.40;99.90;;;-141.84;58.82;19356.59;5013321;28;20305;-60
2022/06/17 02:22:33;;;;;;;3.00;1.80;;;14.40;99.90;;;-141.84;59.03;19334.22;5013416;28;20230;-60
2022/06/17 02:25:06;;;;;;;1.83;1.70;;;14.30;99.90;;;-141.84;58.50;19342.34;5013185;28;20226;-61
2022/06/17 02:27:37;;;;;;;2.20;1.90;;;14.30;99.90;;;-141.84;59.51;19297.66;5013861;28;20241;-61
2022/06/17 02:30:09;;;;;;;2.37;1.60;;;14.30;99.90;;;-141.84;59.13;19330.16;5013689;28;20187;-62
2022/06/17 02:32:39;;;;;;;1.70;1.60;;;14.20;99.90;;;-141.84;59.44;19289.53;5013959;28;20292;-60
2022/06/17 02:35:22;;;;;;;3.93;2.17;;;14.20;99.90;;;-141.84;59.83;19287.50;5013270;28;20250;-60
2022/06/17 02:37:52;;;;;;;2.57;1.50;;;14.20;99.90;;;-141.84;60.71;19257.00;5013333;28;20233;-60
2022/06/17 02:40:30;;;;;;;3.90;1.90;;;14.10;99.90;;;-141.84;61.41;19295.63;5013337;28;20261;-59
2022/06/17 02:43:05;;;;;;;2.93;1.70;;;14.00;99.90;;;-141.84;59.86;19313.91;5013209;28;20317;-61
2022/06/17 02:45:40;;;;;;;4.97;1.53;;;14.10;99.90;;;-141.84;59.51;19297.66;5013163;28;20316;-61
2022/06/17 02:48:21;;;;;;;2.13;1.60;;;14.10;99.90;;;-141.84;59.83;19309.84;5013112;28;20195;-62
2022/06/17 02:50:53;;;;;;;2.50;1.87;;;14.10;99.90;;;-141.84;60.22;19315.94;5013694;28;20274;-61
2022/06/17 02:53:36;;;;;;;3.00;1.77;;;14.10;99.90;;;-141.84;61.01;19269.22;5012960;28;20313;-61
2022/06/17 02:56:14;;;;;;;2.07;1.73;;;14.00;99.90;;;-141.84;61.50;19267.16;5012654;28;20226;-60
2022/06/17 02:59:03;;;;;;;2.60;1.60;;;14.00;99.90;;;-141.84;60.92;19293.59;5012667;28;20285;-62
2022/06/17 03:01:35;;;;;;;2.13;1.90;;;14.00;99.90;;;-141.84;60.51;19309.84;5012736;28;20757;-60
2022/06/17 03:04:13;;;;;;;5.43;1.87;;;14.10;99.90;;;-141.84;59.98;19291.56;5012742;28;20611;-60
2022/06/17 03:06:46;;;;;;;2.80;2.13;;;14.10;99.90;;;-141.84;60.46;19297.66;5012942;28;20297;-61
2022/06/17 03:09:22;;;;;;;2.23;1.63;;;14.10;99.90;;;-141.84;60.55;19313.91;5012758;28;20190;-60
2022/06/17 03:11:57;;;;;;;2.33;1.90;;;14.10;99.90;;;-141.84;60.84;19279.38;5013160;28;20197;-60
2022/06/17 03:14:34;;;;;;;2.40;1.70;;;14.10;99.90;;;-141.84;60.54;19283.44;5032804;28;20212;-60
2022/06/17 03:17:09;;;;;;;3.50;1.77;;;14.10;99.90;;;-141.84;61.17;19263.09;5015161;28;20254;-59
2022/06/17 03:19:38;;;;;;;2.93;1.90;;;14.10;99.90;;;-141.84;61.13;19283.44;4992881;28;20254;-60
2022/06/17 03:22:13;;;;;;;3.43;1.70;;;14.10;99.90;;;-141.84;60.89;19273.28;4992403;28;20235;-61
2022/06/17 03:24:52;;;;;;;4.40;2.17;;;14.10;99.90;;;-141.84;60.74;19293.59;5002517;28;20233;-61
2022/06/17 03:27:29;;;;;;;3.77;1.77;;;14.10;99.90;;;-141.84;61.10;19248.88;5012546;28;20222;-61
2022/06/17 03:30:02;;;;;;;2.10;1.60;;;14.10;99.90;;;-141.84;60.94;19269.22;5012398;28;20205;-61
2022/06/17 03:32:37;;;;;;;1.83;1.73;;;14.10;99.90;;;-141.84;61.61;19265.13;5012849;28;20270;-61
2022/06/17 03:35:15;;;;;;;4.13;2.00;;;14.00;99.90;;;-141.84;62.24;19261.06;5012340;28;20536;-61
2022/06/17 03:37:54;;;;;;;3.00;2.67;;;14.00;99.90;;;-141.84;62.75;19224.50;5012350;28;20222;-60
2022/06/17 03:40:30;;;;;;;4.60;2.00;;;14.00;99.90;;;-141.84;61.59;19261.06;5012293;28;20238;-61
2022/06/17 03:43:09;;;;;;;2.67;2.40;;;14.00;99.90;;;-141.84;62.21;19236.69;5011846;28;20288;-60
2022/06/17 03:45:46;;;;;;;3.47;2.20;;;14.10;99.90;;;-141.84;62.11;19265.13;5012029;28;20280;-60
2022/06/17 03:48:28;;;;;;;2.30;2.07;;;14.10;99.90;;;-141.84;62.06;19244.81;5012056;28;20289;-61
2022/06/17 03:50:56;;;;;;;3.43;2.10;;;14.10;99.90;;;-141.84;62.68;19257.00;5012486;28;20278;-60
2022/06/17 03:53:27;;;;;;;5.83;2.63;;;14.10;99.90;;;-141.84;62.70;19265.13;5031965;28;20639;-61
2022/06/17 03:56:00;;;;;;;3.73;2.20;;;14.10;99.90;;;-141.84;62.99;19232.63;5031486;28;20236;-61
2022/06/17 03:58:28;;;;;;;4.17;2.60;;;14.20;99.90;;;-141.84;63.24;19236.69;5031831;28;20245;-61
2022/06/17 04:01:04;;;;;;;3.30;2.33;;;14.20;99.90;;;-141.84;63.18;19259.03;5031495;28;20308;-61
2022/06/17 04:03:35;;;;;;;4.00;2.27;;;14.20;99.90;;;-141.84;62.71;19259.03;5031651;28;20230;-60
2022/06/17 04:06:15;;;;;;;3.93;2.30;;;14.30;99.90;;;-141.84;63.45;19224.50;5031465;28;20351;-60
2022/06/17 04:08:55;;;;;;;4.37;2.40;;;14.30;99.90;;;-141.84;63.34;19230.59;5031961;28;20726;-62
2022/06/17 04:11:27;;;;;;;3.50;2.70;;;14.30;99.90;;;-141.84;63.14;19257.00;5025437;28;20293;-61
2022/06/17 04:13:58;;;;;;;4.13;2.47;;;14.40;99.90;;;-141.84;63.71;19246.84;5047899;28;20320;-60
2022/06/17 04:16:40;;;;;;;3.13;2.50;;;14.40;99.90;;;-141.84;63.26;19267.16;5038849;28;20336;-60
2022/06/17 04:19:16;;;;;;;4.33;2.73;;;14.50;99.90;;;-141.84;63.72;19303.75;5014716;28;20321;-61
2022/06/17 04:21:45;;;;;;;3.23;2.80;;;14.50;99.90;;;-141.84;62.67;19285.47;5011717;28;20260;-60
2022/06/17 04:24:19;;;;;;;3.77;2.50;;;14.60;99.90;;;-141.84;63.17;19226.53;5011252;28;20226;-60
2022/06/17 04:26:53;;;;;;;2.97;2.43;;;14.70;99.90;;;-141.84;63.00;19267.16;5011553;28;20651;-60
2022/06/17 04:29:34;;;;;;;3.10;2.60;;;14.70;99.90;;;-141.84;62.58;19273.28;5011291;28;20229;-60
2022/06/17 04:32:16;;;;;;;2.80;2.50;;;14.80;99.90;;;-141.84;62.75;19307.81;5011084;28;20241;-62
2022/06/17 04:34:45;;;;;;;3.60;2.53;;;14.90;99.90;;;-141.84;63.13;19305.78;5010412;28;20575;-60
2022/06/17 04:37:20;;;;;;;4.30;2.40;;;15.00;99.90;;;-141.84;63.31;19295.63;5011103;28;20226;-61
2022/06/17 04:39:53;;;;;;;4.00;2.47;;;15.00;99.90;;;-141.84;62.01;19326.09;5011081;28;20225;-61
2022/06/17 04:42:38;;;;;;;6.88;3.13;;;15.20;99.90;;;-141.84;60.22;19374.88;5010709;28;20230;-59
2022/06/17 04:45:17;;;;;;;5.38;3.10;;;15.30;99.90;;;-141.84;59.71;19387.06;5010991;28;20518;-60
2022/06/17 04:47:47;;;;;;;6.43;3.13;;;15.50;99.90;;;-141.84;58.82;19397.22;5011131;28;20584;-61
2022/06/17 04:50:20;;;;;;;3.15;2.53;;;15.70;99.90;;;-141.84;57.22;19529.31;5010840;28;20228;-61
2022/06/17 04:52:51;;;;;;;2.58;2.38;;;16.30;99.90;;;-141.84;49.88;19941.88;5010575;28;20227;-61
2022/06/17 04:55:28;;;;;;;3.45;2.47;;;17.90;99.90;;;-141.84;41.62;20423.59;5010888;28;20721;-61
2022/06/17 04:57:56;;;;;;;3.20;2.28;;;;;;;-141.84;37.30;20850.47;5010756;28;20603;-62
2022/06/17 05:00:28;;;;;;;3.67;2.20;;;;;;;-141.84;34.54;21216.41;5010524;28;20662;-61
2022/06/17 05:02:58;;;;;;;5.13;2.88;;;23.20;99.90;;;-141.84;32.38;21486.81;5011402;28;20281;-62
2022/06/17 05:05:35;;;;;;;5.82;3.40;;;24.20;99.90;;;-141.84;30.33;21761.31;5010983;28;20250;-60
2022/06/17 05:08:11;;;;;;;4.78;2.28;;;24.80;99.90;;;-141.84;30.40;21799.97;5010460;28;20222;-62
2022/06/17 05:10:43;;;;;;;4.05;2.53;;;25.70;99.90;;;-141.84;29.65;21972.81;5018343;28;20308;-61
2022/06/17 05:13:20;;;;;;;6.30;3.00;;;25.90;99.90;;;-141.84;28.92;22086.69;5040110;28;20225;-61
2022/06/17 05:15:48;;;;;;;4.60;2.60;;;26.00;99.90;;;-141.84;28.33;22088.72;5042783;28;20602;-61
2022/06/17 05:18:18;;;;;;;7.50;2.92;;;26.40;99.90;;;-141.84;28.70;21980.94;5021001;28;20205;-61
2022/06/17 05:20:46;;;;;;;3.25;2.40;;;26.50;99.90;;;-141.84;28.71;21991.09;5011058;28;20244;-62
2022/06/17 05:23:17;;;;;;;7.40;3.00;;;26.70;99.90;;;-141.84;28.97;22013.47;5010277;28;20714;-60
2022/06/17 05:25:49;;;;;;;5.18;2.92;;;26.50;99.90;;;-141.84;28.94;21926.03;5009887;28;20662;-61
2022/06/17 05:28:21;;;;;;;5.90;2.90;;;26.10;99.90;;;-141.84;29.61;21930.09;5009952;28;20227;-61
2022/06/17 05:30:53;;;;;;;4.40;2.60;;;26.20;99.90;;;-141.84;29.48;21968.72;5009984;28;20728;-61
2022/06/17 05:33:25;;;;;;;5.20;2.63;;;26.10;99.90;;;-141.84;29.12;21989.06;5009925;28;20644;-62
2022/06/17 05:35:53;;;;;;;3.88;2.95;;;25.80;99.90;;;-141.84;29.51;21875.19;5010691;28;20427;-62
2022/06/17 05:38:21;;;;;;;2.63;2.40;;;25.80;99.90;;;-141.84;29.75;21745.06;5010108;28;20234;-61
2022/06/17 05:40:50;;;;;;;5.68;2.72;;;25.30;99.90;;;-141.84;31.11;21543.75;5009929;28;20301;-62
2022/06/17 05:43:18;;;;;;;6.38;3.17;;;24.80;99.90;;;-141.84;32.60;21228.63;5010466;28;20663;-62
2022/06/17 05:45:46;;;;;;;5.45;3.70;;;24.10;99.90;;;-141.84;34.80;20927.72;4991790;28;20629;-63
2022/06/17 05:48:14;;;;;;;5.32;3.28;;;23.40;99.90;;;-141.84;38.17;20626.88;4990903;28;20211;-59
2022/06/17 05:50:45;;;;;;;4.18;3.20;;;22.50;99.90;;;-141.84;39.23;20517.09;4991879;28;20213;-60
2022/06/17 05:53:14;;;;;;;5.90;3.80;;;21.80;99.90;;;-141.84;40.61;20423.59;4990815;28;20238;-60
2022/06/17 05:55:43;;;;;;;6.88;3.53;;;21.40;99.90;;;-141.84;42.10;20317.91;5008969;28;20225;-61
2022/06/17 05:58:11;;;;;;;5.60;3.53;;;21.00;99.90;;;-141.84;42.08;20309.75;5010524;28;20234;-59
2022/06/17 06:00:39;;;;;;;6.07;3.58;;;20.90;99.90;;;-141.84;42.75;20289.44;5010899;28;20226;-61
2022/06/17 06:03:08;;;;;;;4.53;3.17;;;20.90;99.90;;;-141.84;42.56;20283.34;5010454;28;20207;-60
2022/06/17 06:05:37;;;;;;;6.30;3.22;;;21.00;99.90;;;-141.84;42.39;20273.19;5011208;28;20223;-60
2022/06/17 06:08:07;;;;;;;4.75;3.17;;;20.90;99.90;;;-141.84;42.73;20252.84;5010373;28;20285;-61
2022/06/17 06:10:36;;;;;;;4.07;3.20;;;20.90;99.90;;;-141.84;42.94;20240.66;5010643;28;20297;-62
2022/06/17 06:13:05;;;;;;;5.30;3.00;;;20.90;99.90;;;-141.84;42.87;20256.91;5019672;28;20222;-60
2022/06/17 06:15:39;;;;;;;5.15;3.40;;;21.20;99.90;;;-141.84;42.32;20269.13;5025534;28;20218;-60
2022/06/17 06:18:10;;;;;;;8.75;3.28;;;21.20;99.90;;;-141.84;42.23;20279.28;5010180;28;20611;-60
2022/06/17 06:20:39;;;;;;;4.43;2.83;;;21.10;99.90;;;-141.84;42.93;20269.13;5011358;28;20183;-59
2022/06/17 06:23:09;;;;;;;4.45;2.67;;;21.20;99.90;;;-141.84;42.58;20301.63;5010225;28;20319;-60
2022/06/17 06:25:38;;;;;;;3.42;2.53;;;21.10;99.90;;;-141.84;42.81;20267.09;5010316;28;20226;-58
2022/06/17 06:28:11;;;;;;;4.32;2.83;;;21.30;99.90;;;-141.84;41.53;20338.22;5010131;28;20585;-62
2022/06/17 06:30:40;;;;;;;3.63;3.08;;;21.40;99.90;;;-141.84;41.78;20348.38;5010775;28;20230;-62
2022/06/17 06:33:11;;;;;;;4.28;2.55;;;21.20;99.90;;;-141.84;41.72;20332.13;5010402;28;20213;-61
2022/06/17 06:35:41;;;;;;;4.10;2.70;;;21.20;99.90;;;-141.84;42.20;20285.38;5010961;28;20191;-59
2022/06/17 06:38:10;;;;;;;7.35;3.05;;;21.40;99.90;;;-141.84;42.20;20281.31;5010189;28;20241;-60
2022/06/17 06:40:38;;;;;;;3.88;2.50;;;21.20;99.90;;;-141.84;42.13;20313.84;5010285;28;20236;-63
2022/06/17 06:43:14;;;;;;;5.85;3.47;;;21.10;99.90;;;-141.84;41.97;20319.94;5009925;28;20222;-59
2022/06/17 06:45:44;;;;;;;4.70;2.75;;;21.30;99.90;;;-141.84;42.28;20344.31;5010271;28;20229;-62
2022/06/17 06:48:15;;;;;;;4.40;2.50;;;21.30;99.90;;;-141.84;42.35;20315.88;5010291;28;20203;-61
2022/06/17 06:50:43;;;;;;;7.75;2.80;;;21.40;99.90;;;-141.84;41.70;20289.44;5010892;28;20183;-60
2022/06/17 06:53:13;;;;;;;7.05;2.72;;;21.30;99.90;;;-141.84;41.81;20315.88;5010019;28;20233;-60
2022/06/17 06:55:42;;;;;;;3.55;2.33;;;21.60;99.90;;;-141.84;40.67;20372.78;5009973;28;20227;-61
2022/06/17 06:58:14;;;;;;;6.05;2.40;;;21.50;99.90;;;-141.84;41.25;20358.56;5011931;28;20227;-61
2022/06/17 07:00:45;;;;;;;4.18;2.40;;;21.50;99.90;;;-141.84;40.13;20387.00;5013868;28;20313;-63
2022/06/17 07:03:15;;;;;;;4.35;2.30;;;21.50;99.90;;;-141.84;40.80;20370.75;5013736;28;20191;-61
2022/06/17 07:05:46;;;;;;;2.45;2.20;;;21.50;99.90;;;-141.84;41.25;20380.91;5014207;28;20207;-59
2022/06/17 07:08:22;;;;;;;3.20;1.92;;;21.40;99.90;;;-141.84;40.12;20376.84;5013298;28;20223;-60
2022/06/17 07:10:56;;;;;;;3.20;1.98;;;21.50;99.90;;;-141.84;41.13;20336.19;5013463;28;20780;-61
2022/06/17 07:13:25;;;;;;;3.13;2.58;;;21.50;99.90;;;-141.84;40.66;20344.31;5024994;28;20244;-61
2022/06/17 07:15:53;;;;;;;4.32;2.60;;;21.40;99.90;;;-141.84;41.28;20342.28;5025645;28;20223;-61
2022/06/17 07:18:25;;;;;;;2.25;2.00;;;21.30;99.90;;;-141.84;41.64;20330.09;5013219;28;20222;-60
2022/06/17 07:20:56;;;;;;;3.78;2.10;;;21.40;99.90;;;-141.84;39.83;20393.09;5014008;28;20197;-61
2022/06/17 07:23:32;;;;;;;3.10;1.73;;;21.40;99.90;;;-141.84;40.11;20391.06;5013521;28;20219;-60
2022/06/17 07:26:02;;;;;;;2.97;1.90;;;21.60;99.90;;;-141.84;39.64;20354.47;5013056;28;20223;-60
2022/06/17 07:28:30;;;;;;;4.47;1.95;;;21.40;99.90;;;-141.84;40.25;20417.50;5013320;28;20245;-60
2022/06/17 07:30:59;;;;;;;5.85;2.00;;;21.40;99.90;;;-141.84;40.97;20391.06;5012974;28;20676;-60
2022/06/17 07:33:30;;;;;;;2.28;1.58;;;21.40;99.90;;;-141.84;40.98;20340.25;5013267;28;20222;-60
2022/06/17 07:36:01;;;;;;;3.45;1.98;;;21.40;99.90;;;-141.84;41.10;20328.06;5013393;28;20198;-59
2022/06/17 07:41:24;;;;;;;3.97;2.05;;;21.50;99.90;;;-141.84;40.41;20348.38;5012754;28;20599;-61
2022/06/17 07:43:54;;;;;;;2.88;1.75;;;21.40;99.90;;;-141.84;40.54;20374.81;5028674;28;20232;-61
2022/06/17 07:46:24;;;;;;;2.17;1.70;;;21.40;99.90;;;-141.84;41.03;20342.28;5032582;28;20310;-61
2022/06/17 07:48:52;;;;;;;3.63;2.38;;;21.50;99.90;;;-141.84;41.23;20354.47;5032816;28;20225;-61
2022/06/17 07:51:20;;;;;;;3.13;1.90;;;21.50;99.90;;;-141.84;40.79;20342.28;5032504;28;21085;-60
2022/06/17 07:53:50;;;;;;;3.17;2.00;;;21.50;99.90;;;-141.84;40.98;20352.44;5033207;28;20202;-61
2022/06/17 07:56:20;;;;;;;2.55;1.85;;;21.50;99.90;;;-141.84;40.37;20374.81;5032349;28;20625;-61
2022/06/17 07:58:48;;;;;;;3.38;1.92;;;21.50;99.90;;;-141.84;40.86;20382.94;5032617;28;20237;-60
2022/06/17 08:01:16;;;;;;;2.38;1.60;;;21.50;99.90;;;-141.84;41.15;20360.59;5032357;28;20221;-60
2022/06/17 08:03:44;;;;;;;4.10;1.77;;;21.40;99.90;;;-141.84;41.10;20321.97;5032533;28;20241;-61
2022/06/17 08:06:16;;;;;;;4.93;2.97;;;21.40;99.90;;;-141.84;41.02;20350.41;5032720;28;20696;-60
2022/06/17 08:08:46;;;;;;;5.53;1.95;;;21.40;99.90;;;-141.84;40.72;20356.50;5032925;28;20643;-60
2022/06/17 08:11:16;;;;;;;2.50;1.90;;;21.40;99.90;;;-141.84;40.69;20382.94;5032363;28;20597;-61
2022/06/17 08:13:44;;;;;;;3.63;1.85;;;21.50;99.90;;;-141.84;41.01;20407.34;5032290;28;20308;-61
2022/06/17 08:16:14;;;;;;;2.30;1.60;;;21.50;99.90;;;-141.84;39.75;20421.56;5031872;28;20283;-60
2022/06/17 08:18:44;;;;;;;4.57;1.90;;;21.50;99.90;;;-141.84;39.92;20378.88;5032134;28;20226;-61
2022/06/17 08:21:13;;;;;;;2.40;1.70;;;21.50;99.90;;;-141.84;40.81;20362.63;5032121;28;20210;-60
2022/06/17 08:23:42;;;;;;;4.38;1.75;;;21.50;99.90;;;-141.84;40.64;20384.97;5032563;28;20653;-61
2022/06/17 08:26:10;;;;;;;3.05;1.60;;;21.50;99.90;;;-141.84;40.43;20429.69;5031590;28;20316;-60
2022/06/17 08:28:40;;;;;;;3.28;1.60;;;21.60;99.90;;;-141.84;40.79;20374.81;5031703;28;20232;-61
2022/06/17 08:31:08;;;;;;;3.30;1.80;;;21.50;99.90;;;-141.84;40.65;20389.03;5031207;28;20781;-61
2022/06/17 08:33:37;;;;;;;2.83;1.83;;;21.60;99.90;;;-141.84;39.88;20387.00;5031864;28;20320;-62
2022/06/17 08:36:16;;;;;;;1.98;1.60;;;21.70;99.90;;;-141.84;40.29;20464.25;5031668;28;20182;-61
2022/06/17 08:38:50;;;;;;;3.58;1.83;;;21.80;99.90;;;-141.84;39.54;20393.09;5032201;28;20277;-60
2022/06/17 08:41:27;;;;;;;2.92;1.85;;;21.70;99.90;;;-141.84;39.63;20368.72;5031139;28;20228;-61
2022/06/17 08:44:32;;;;;;;2.72;1.50;;;21.60;99.90;;;-141.84;40.58;20370.75;5031336;28;20263;-61
2022/06/17 08:47:45;;;;;;;2.47;1.83;;;21.50;99.90;;;-141.84;40.20;20389.03;5031046;28;20321;-60
2022/06/17 08:50:49;;;;;;;4.00;1.70;;;21.60;99.90;;;-141.84;40.99;20364.66;5030755;28;20230;-61
2022/06/17 08:53:54;;;;;;;1.52;1.42;;;21.50;99.90;;;-141.84;41.26;20387.00;5022369;28;20697;-61
2022/06/17 08:56:34;;;;;;;5.57;1.80;;;21.50;99.90;;;-141.84;40.92;20350.41;4999900;28;20301;-61
2022/06/17 08:59:19;;;;;;;4.28;2.00;;;21.50;99.90;;;-141.84;39.78;20419.53;5011011;28;20334;-62
2022/06/17 09:01:58;;;;;;;3.97;2.10;;;21.70;99.90;;;-141.84;40.09;20399.19;5010929;28;20230;-59
2022/06/17 09:04:57;;;;;;;4.13;2.05;;;21.70;99.90;;;-141.84;40.02;20362.63;5011126;28;20659;-61
2022/06/17 09:07:43;;;;;;;2.20;2.00;;;21.80;99.90;;;-141.84;39.64;20452.06;5011057;28;20317;-61
2022/06/17 09:10:35;;;;;;;5.00;2.10;;;21.70;99.90;;;-141.84;40.11;20411.41;5015299;28;20254;-61
2022/06/17 09:13:24;;;;;;;3.90;2.00;;;21.60;99.90;;;-141.84;40.36;20370.75;5039850;28;20257;-60
2022/06/17 09:16:05;;;;;;;3.95;2.28;;;21.60;99.90;;;-141.84;40.07;20411.41;5042929;28;20250;-60
2022/06/17 09:18:40;;;;;;;2.10;1.90;;;21.70;99.90;;;-141.84;39.97;20427.66;5019233;28;20227;-60
2022/06/17 09:21:16;;;;;;;2.28;2.08;;;21.70;99.90;;;-141.84;39.63;20429.69;5010079;28;20883;-60
2022/06/17 09:23:45;;;;;;;2.08;1.88;;;21.80;99.90;;;-141.84;39.61;20441.88;5011463;28;20186;-65
2022/06/17 09:26:23;;;;;;;2.72;1.95;;;21.80;99.90;;;-141.84;39.40;20443.91;4997938;28;20231;-64
2022/06/17 09:28:59;;;;;;;2.70;2.20;;;21.80;99.90;;;-141.84;40.04;20368.72;4990944;28;20226;-62
2022/06/17 09:31:36;;;;;;;4.78;1.85;;;21.70;99.90;;;-141.84;38.92;20431.72;4990795;28;20319;-63
2022/06/17 09:34:12;;;;;;;3.38;2.15;;;21.80;99.90;;;-141.84;39.27;20413.44;4991375;28;20222;-63
2022/06/17 09:36:47;;;;;;;3.40;2.13;;;21.70;99.90;;;-141.84;39.26;20450.03;4991190;28;20223;-61
2022/06/17 09:39:23;;;;;;;4.53;2.25;;;21.80;99.90;;;-141.84;38.60;20500.84;4991319;28;20183;-63
2022/06/17 09:42:00;;;;;;;2.80;1.90;;;21.90;99.90;;;-141.84;38.95;20450.03;4991415;28;20290;-63
2022/06/17 09:44:36;;;;;;;3.58;2.10;;;22.00;99.90;;;-141.84;38.85;20435.78;4991286;28;20310;-62
2022/06/17 09:47:16;;;;;;;3.05;1.92;;;22.00;99.90;;;-141.84;38.09;20506.94;5008026;28;20230;-64
2022/06/17 09:49:54;;;;;;;2.55;1.88;;;22.10;99.90;;;-141.84;37.49;20527.25;5010735;28;20222;-64
2022/06/17 09:52:29;;;;;;;6.18;2.30;;;22.10;99.90;;;-141.84;38.32;20557.75;5010586;28;20663;-62
2022/06/17 09:55:06;;;;;;;1.83;1.60;;;22.20;99.90;;;-141.84;38.74;20531.31;5022285;28;20257;-62
2022/06/17 09:57:46;;;;;;;3.00;1.85;;;22.30;99.90;;;-141.84;37.76;20582.16;5030194;28;20721;-63
2022/06/17 10:00:20;;;;;;;4.45;2.05;;;22.40;99.90;;;-141.84;37.04;20590.28;5030155;28;20562;-60
2022/06/17 10:02:53;;;;;;;2.63;1.83;;;22.50;99.90;;;-141.84;37.19;20574.00;5030822;28;20613;-62
2022/06/17 10:05:36;;;;;;;3.83;1.70;;;22.50;99.90;;;-141.84;37.16;20561.81;5030982;28;20218;-63
2022/06/17 10:08:18;;;;;;;3.40;1.60;;;22.50;99.90;;;-141.84;35.91;20643.13;5030352;28;20288;-64
2022/06/17 10:10:58;;;;;;;2.67;1.50;;;22.50;99.90;;;-141.84;36.54;20598.41;5039182;28;20223;-62
2022/06/17 10:13:40;;;;;;;1.85;1.63;;;22.50;99.90;;;-141.84;36.51;20622.81;5050389;28;20217;-62
2022/06/17 10:19:37;;;;;;;2.88;1.83;;;22.50;99.90;;;-141.84;36.91;20610.59;4985840;28;20602;-59
2022/06/17 10:22:25;;;;;;;3.10;2.20;;;22.50;99.90;;;-141.84;35.98;20630.94;5029715;28;20790;-61
2022/06/17 10:25:14;;;;;;;4.22;1.80;;;22.50;99.90;;;-141.84;36.71;20608.56;5030081;28;20241;-60
2022/06/17 10:28:01;;;;;;;5.10;1.70;;;22.50;99.90;;;-141.84;36.63;20592.31;5030028;28;20675;-59
2022/06/17 10:30:43;;;;;;;4.40;1.50;;;22.50;99.90;;;-141.84;34.78;20724.44;5030347;28;20225;-60
2022/06/17 10:33:16;;;;;;;4.50;1.77;;;22.60;99.90;;;-141.84;35.21;20673.63;5032575;28;20187;-60
2022/06/17 10:35:48;;;;;;;2.97;1.90;;;22.70;99.90;;;-141.84;36.13;20651.25;5034533;28;20225;-60
2022/06/17 10:38:22;;;;;;;4.03;2.22;;;22.70;99.90;;;-141.84;35.98;20669.56;5033778;28;20249;-59
2022/06/17 10:40:51;;;;;;;3.70;1.50;;;22.80;99.90;;;-141.84;35.98;20639.06;5033713;28;20225;-61
2022/06/17 10:43:24;;;;;;;2.63;1.67;;;22.70;99.90;;;-141.84;36.05;20628.91;5033612;28;20236;-61
2022/06/17 10:45:53;;;;;;;2.33;1.73;;;22.70;99.90;;;-141.84;36.15;20639.06;5033085;28;20799;-59